sensor_id;sensor_type;location;lat;lon;timestamp;P1;durP1;ratioP1;P2;durP2;ratioP2
22937;SDS011;11634;42.734;23.298;2022-07-12T00:02:01;4.85;;;3.03;;
22937;SDS011;11634;42.734;23.298;2022-07-12T00:04:27;4.28;;;3.83;;
22937;SDS011;11634;42.734;23.298;2022-07-12T00:06:54;6.78;;;3.10;;
22937;SDS011;11634;42.734;23.298;2022-07-12T00:09:19;3.55;;;3.25;;
22937;SDS011;11634;42.734;23.298;2022-07-12T00:11:45;3.63;;;3.33;;
22937;SDS011;11634;42.734;23.298;2022-07-12T00:14:11;3.45;;;3.08;;
22937;SDS011;11634;42.734;23.298;2022-07-12T00:16:36;4.75;;;3.35;;
22937;SDS011;11634;42.734;23.298;2022-07-12T00:19:02;4.45;;;3.00;;
22937;SDS011;11634;42.734;23.298;2022-07-12T00:21:28;4.07;;;3.20;;
22937;SDS011;11634;42.734;23.298;2022-07-12T00:23:54;2.90;;;2.70;;
22937;SDS011;11634;42.734;23.298;2022-07-12T00:26:20;3.28;;;2.90;;
22937;SDS011;11634;42.734;23.298;2022-07-12T00:28:45;5.15;;;3.33;;
22937;SDS011;11634;42.734;23.298;2022-07-12T00:31:11;7.00;;;3.55;;
22937;SDS011;11634;42.734;23.298;2022-07-12T00:33:37;5.18;;;3.28;;
22937;SDS011;11634;42.734;23.298;2022-07-12T00:36:02;4.85;;;3.00;;
22937;SDS011;11634;42.734;23.298;2022-07-12T00:38:28;4.13;;;3.15;;
22937;SDS011;11634;42.734;23.298;2022-07-12T00:40:54;4.25;;;3.25;;
22937;SDS011;11634;42.734;23.298;2022-07-12T00:43:19;3.67;;;3.00;;
22937;SDS011;11634;42.734;23.298;2022-07-12T00:45:46;3.22;;;2.92;;
22937;SDS011;11634;42.734;23.298;2022-07-12T00:48:11;4.22;;;2.85;;
22937;SDS011;11634;42.734;23.298;2022-07-12T00:50:38;3.47;;;3.20;;
22937;SDS011;11634;42.734;23.298;2022-07-12T00:53:04;3.80;;;3.08;;
22937;SDS011;11634;42.734;23.298;2022-07-12T00:55:30;3.90;;;3.45;;
22937;SDS011;11634;42.734;23.298;2022-07-12T00:57:55;4.28;;;3.33;;
22937;SDS011;11634;42.734;23.298;2022-07-12T01:00:22;4.57;;;3.10;;
22937;SDS011;11634;42.734;23.298;2022-07-12T01:02:54;5.20;;;3.40;;
22937;SDS011;11634;42.734;23.298;2022-07-12T01:05:20;4.88;;;2.92;;
22937;SDS011;11634;42.734;23.298;2022-07-12T01:07:46;6.75;;;3.47;;
22937;SDS011;11634;42.734;23.298;2022-07-12T01:10:14;5.72;;;3.33;;
22937;SDS011;11634;42.734;23.298;2022-07-12T01:12:39;3.13;;;2.92;;
22937;SDS011;11634;42.734;23.298;2022-07-12T01:15:07;4.70;;;3.00;;
22937;SDS011;11634;42.734;23.298;2022-07-12T01:17:34;5.68;;;2.80;;
22937;SDS011;11634;42.734;23.298;2022-07-12T01:20:00;3.15;;;2.95;;
22937;SDS011;11634;42.734;23.298;2022-07-12T01:22:27;4.47;;;2.90;;
22937;SDS011;11634;42.734;23.298;2022-07-12T01:24:56;3.50;;;3.20;;
22937;SDS011;11634;42.734;23.298;2022-07-12T01:27:22;5.88;;;3.58;;
22937;SDS011;11634;42.734;23.298;2022-07-12T01:29:48;3.13;;;2.83;;
22937;SDS011;11634;42.734;23.298;2022-07-12T01:32:13;3.90;;;3.03;;
22937;SDS011;11634;42.734;23.298;2022-07-12T01:34:55;3.50;;;2.97;;
22937;SDS011;11634;42.734;23.298;2022-07-12T01:37:23;3.95;;;3.00;;
22937;SDS011;11634;42.734;23.298;2022-07-12T01:39:51;4.82;;;2.90;;
22937;SDS011;11634;42.734;23.298;2022-07-12T01:42:19;4.38;;;2.70;;
22937;SDS011;11634;42.734;23.298;2022-07-12T01:44:45;4.60;;;3.28;;
22937;SDS011;11634;42.734;23.298;2022-07-12T01:47:11;3.78;;;3.30;;
22937;SDS011;11634;42.734;23.298;2022-07-12T01:49:37;5.45;;;2.90;;
22937;SDS011;11634;42.734;23.298;2022-07-12T01:52:03;4.63;;;2.97;;
22937;SDS011;11634;42.734;23.298;2022-07-12T01:54:29;3.97;;;3.13;;
22937;SDS011;11634;42.734;23.298;2022-07-12T01:56:55;3.35;;;3.05;;
22937;SDS011;11634;42.734;23.298;2022-07-12T01:59:20;3.75;;;3.10;;
22937;SDS011;11634;42.734;23.298;2022-07-12T02:01:47;3.20;;;3.00;;
22937;SDS011;11634;42.734;23.298;2022-07-12T02:04:16;4.63;;;3.60;;
22937;SDS011;11634;42.734;23.298;2022-07-12T02:06:43;3.40;;;3.00;;
22937;SDS011;11634;42.734;23.298;2022-07-12T02:09:10;3.83;;;3.03;;
22937;SDS011;11634;42.734;23.298;2022-07-12T02:11:40;4.63;;;3.10;;
22937;SDS011;11634;42.734;23.298;2022-07-12T02:14:06;5.50;;;3.13;;
22937;SDS011;11634;42.734;23.298;2022-07-12T02:16:32;4.22;;;2.95;;
22937;SDS011;11634;42.734;23.298;2022-07-12T02:18:58;3.67;;;2.95;;
22937;SDS011;11634;42.734;23.298;2022-07-12T02:21:24;3.17;;;2.55;;
22937;SDS011;11634;42.734;23.298;2022-07-12T02:23:49;3.70;;;2.63;;
22937;SDS011;11634;42.734;23.298;2022-07-12T02:26:15;5.53;;;2.88;;
22937;SDS011;11634;42.734;23.298;2022-07-12T02:28:41;3.25;;;2.88;;
22937;SDS011;11634;42.734;23.298;2022-07-12T02:31:07;3.42;;;3.13;;
22937;SDS011;11634;42.734;23.298;2022-07-12T02:33:33;5.78;;;3.20;;
22937;SDS011;11634;42.734;23.298;2022-07-12T02:35:59;4.85;;;2.83;;
22937;SDS011;11634;42.734;23.298;2022-07-12T02:38:25;4.18;;;3.10;;
22937;SDS011;11634;42.734;23.298;2022-07-12T02:40:51;5.47;;;3.28;;
22937;SDS011;11634;42.734;23.298;2022-07-12T02:43:25;3.75;;;3.33;;
22937;SDS011;11634;42.734;23.298;2022-07-12T02:45:53;3.10;;;2.90;;
22937;SDS011;11634;42.734;23.298;2022-07-12T02:48:21;5.15;;;3.55;;
22937;SDS011;11634;42.734;23.298;2022-07-12T02:50:47;3.83;;;3.30;;
22937;SDS011;11634;42.734;23.298;2022-07-12T02:53:14;4.10;;;3.40;;
22937;SDS011;11634;42.734;23.298;2022-07-12T02:55:39;5.30;;;3.35;;
22937;SDS011;11634;42.734;23.298;2022-07-12T02:58:05;3.80;;;3.13;;
22937;SDS011;11634;42.734;23.298;2022-07-12T03:00:34;3.42;;;2.67;;
22937;SDS011;11634;42.734;23.298;2022-07-12T03:03:00;4.60;;;3.38;;
22937;SDS011;11634;42.734;23.298;2022-07-12T03:05:26;7.47;;;3.22;;
22937;SDS011;11634;42.734;23.298;2022-07-12T03:07:52;5.57;;;3.65;;
22937;SDS011;11634;42.734;23.298;2022-07-12T03:10:18;4.85;;;3.47;;
22937;SDS011;11634;42.734;23.298;2022-07-12T03:12:44;4.68;;;3.35;;
22937;SDS011;11634;42.734;23.298;2022-07-12T03:15:10;3.83;;;3.53;;
22937;SDS011;11634;42.734;23.298;2022-07-12T03:17:36;4.45;;;3.47;;
22937;SDS011;11634;42.734;23.298;2022-07-12T03:20:02;3.72;;;3.40;;
22937;SDS011;11634;42.734;23.298;2022-07-12T03:22:34;5.03;;;3.50;;
22937;SDS011;11634;42.734;23.298;2022-07-12T03:24:59;6.03;;;3.50;;
22937;SDS011;11634;42.734;23.298;2022-07-12T03:27:25;3.83;;;3.42;;
22937;SDS011;11634;42.734;23.298;2022-07-12T03:29:50;3.60;;;3.30;;
22937;SDS011;11634;42.734;23.298;2022-07-12T03:32:16;6.20;;;3.80;;
22937;SDS011;11634;42.734;23.298;2022-07-12T03:34:42;4.82;;;3.60;;
22937;SDS011;11634;42.734;23.298;2022-07-12T03:37:08;4.03;;;3.35;;
22937;SDS011;11634;42.734;23.298;2022-07-12T03:39:34;4.10;;;3.33;;
22937;SDS011;11634;42.734;23.298;2022-07-12T03:41:59;3.55;;;3.25;;
22937;SDS011;11634;42.734;23.298;2022-07-12T03:44:25;3.20;;;2.90;;
22937;SDS011;11634;42.734;23.298;2022-07-12T03:46:51;3.17;;;2.92;;
22937;SDS011;11634;42.734;23.298;2022-07-12T03:49:16;3.50;;;2.85;;
22937;SDS011;11634;42.734;23.298;2022-07-12T03:51:42;3.22;;;2.72;;
22937;SDS011;11634;42.734;23.298;2022-07-12T03:54:07;3.28;;;2.50;;
22937;SDS011;11634;42.734;23.298;2022-07-12T03:56:36;2.50;;;2.30;;
22937;SDS011;11634;42.734;23.298;2022-07-12T03:59:21;3.15;;;2.47;;
22937;SDS011;11634;42.734;23.298;2022-07-12T04:01:48;2.58;;;2.38;;
22937;SDS011;11634;42.734;23.298;2022-07-12T04:04:13;2.95;;;2.65;;
22937;SDS011;11634;42.734;23.298;2022-07-12T04:06:39;3.55;;;2.25;;
22937;SDS011;11634;42.734;23.298;2022-07-12T04:09:08;2.78;;;2.15;;
22937;SDS011;11634;42.734;23.298;2022-07-12T04:11:33;4.97;;;2.35;;
22937;SDS011;11634;42.734;23.298;2022-07-12T04:13:59;2.53;;;2.33;;
22937;SDS011;11634;42.734;23.298;2022-07-12T04:16:25;2.50;;;2.30;;
22937;SDS011;11634;42.734;23.298;2022-07-12T04:18:51;5.18;;;1.90;;
22937;SDS011;11634;42.734;23.298;2022-07-12T04:21:17;3.88;;;2.00;;
22937;SDS011;11634;42.734;23.298;2022-07-12T04:23:43;3.63;;;2.20;;
22937;SDS011;11634;42.734;23.298;2022-07-12T04:26:08;2.60;;;1.98;;
22937;SDS011;11634;42.734;23.298;2022-07-12T04:28:34;2.22;;;1.98;;
22937;SDS011;11634;42.734;23.298;2022-07-12T04:31:00;3.80;;;1.92;;
22937;SDS011;11634;42.734;23.298;2022-07-12T04:33:26;2.97;;;2.15;;
22937;SDS011;11634;42.734;23.298;2022-07-12T04:35:52;6.18;;;2.03;;
22937;SDS011;11634;42.734;23.298;2022-07-12T04:38:17;3.75;;;2.50;;
22937;SDS011;11634;42.734;23.298;2022-07-12T04:40:43;4.30;;;2.00;;
22937;SDS011;11634;42.734;23.298;2022-07-12T04:43:08;2.10;;;1.90;;
22937;SDS011;11634;42.734;23.298;2022-07-12T04:45:36;3.97;;;2.30;;
22937;SDS011;11634;42.734;23.298;2022-07-12T04:48:11;3.35;;;2.10;;
22937;SDS011;11634;42.734;23.298;2022-07-12T04:50:37;4.22;;;2.90;;
22937;SDS011;11634;42.734;23.298;2022-07-12T04:53:03;3.80;;;2.38;;
22937;SDS011;11634;42.734;23.298;2022-07-12T04:55:28;3.33;;;2.47;;
22937;SDS011;11634;42.734;23.298;2022-07-12T04:57:54;5.38;;;2.10;;
22937;SDS011;11634;42.734;23.298;2022-07-12T05:00:20;5.47;;;4.00;;
22937;SDS011;11634;42.734;23.298;2022-07-12T05:02:46;4.30;;;2.50;;
22937;SDS011;11634;42.734;23.298;2022-07-12T05:05:12;6.95;;;3.33;;
22937;SDS011;11634;42.734;23.298;2022-07-12T05:07:37;6.82;;;3.03;;
22937;SDS011;11634;42.734;23.298;2022-07-12T05:10:03;9.90;;;4.03;;
22937;SDS011;11634;42.734;23.298;2022-07-12T05:12:29;6.10;;;3.40;;
22937;SDS011;11634;42.734;23.298;2022-07-12T05:14:55;5.25;;;3.35;;
22937;SDS011;11634;42.734;23.298;2022-07-12T05:17:23;8.23;;;3.00;;
22937;SDS011;11634;42.734;23.298;2022-07-12T05:19:49;5.38;;;3.08;;
22937;SDS011;11634;42.734;23.298;2022-07-12T05:22:14;10.75;;;3.58;;
22937;SDS011;11634;42.734;23.298;2022-07-12T05:24:40;7.35;;;2.90;;
22937;SDS011;11634;42.734;23.298;2022-07-12T05:27:05;7.22;;;3.53;;
22937;SDS011;11634;42.734;23.298;2022-07-12T05:29:31;6.50;;;3.00;;
22937;SDS011;11634;42.734;23.298;2022-07-12T05:31:56;6.57;;;3.00;;
22937;SDS011;11634;42.734;23.298;2022-07-12T05:34:23;5.68;;;3.08;;
22937;SDS011;11634;42.734;23.298;2022-07-12T05:36:48;6.00;;;2.47;;
22937;SDS011;11634;42.734;23.298;2022-07-12T05:39:14;6.80;;;2.90;;
22937;SDS011;11634;42.734;23.298;2022-07-12T05:41:40;7.60;;;3.25;;
22937;SDS011;11634;42.734;23.298;2022-07-12T05:44:05;12.30;;;3.33;;
22937;SDS011;11634;42.734;23.298;2022-07-12T05:46:31;7.90;;;3.38;;
22937;SDS011;11634;42.734;23.298;2022-07-12T05:48:57;13.13;;;8.50;;
22937;SDS011;11634;42.734;23.298;2022-07-12T05:51:22;9.63;;;3.38;;
22937;SDS011;11634;42.734;23.298;2022-07-12T05:54:06;5.60;;;2.92;;
22937;SDS011;11634;42.734;23.298;2022-07-12T05:56:32;6.95;;;3.25;;
22937;SDS011;11634;42.734;23.298;2022-07-12T05:58:57;11.18;;;3.08;;
22937;SDS011;11634;42.734;23.298;2022-07-12T06:01:24;7.40;;;3.03;;
22937;SDS011;11634;42.734;23.298;2022-07-12T06:03:49;6.07;;;3.28;;
22937;SDS011;11634;42.734;23.298;2022-07-12T06:06:15;8.27;;;3.65;;
22937;SDS011;11634;42.734;23.298;2022-07-12T06:08:40;5.57;;;3.40;;
22937;SDS011;11634;42.734;23.298;2022-07-12T06:11:06;6.63;;;3.10;;
22937;SDS011;11634;42.734;23.298;2022-07-12T06:13:31;5.53;;;3.42;;
22937;SDS011;11634;42.734;23.298;2022-07-12T06:15:57;7.47;;;2.70;;
22937;SDS011;11634;42.734;23.298;2022-07-12T06:18:24;4.93;;;2.90;;
22937;SDS011;11634;42.734;23.298;2022-07-12T06:20:50;8.48;;;3.40;;
22937;SDS011;11634;42.734;23.298;2022-07-12T06:23:16;4.93;;;3.30;;
22937;SDS011;11634;42.734;23.298;2022-07-12T06:25:42;6.50;;;2.90;;
22937;SDS011;11634;42.734;23.298;2022-07-12T06:28:08;4.28;;;2.35;;
22937;SDS011;11634;42.734;23.298;2022-07-12T06:30:33;6.65;;;2.22;;
22937;SDS011;11634;42.734;23.298;2022-07-12T06:32:59;5.43;;;2.25;;
22937;SDS011;11634;42.734;23.298;2022-07-12T06:35:24;4.88;;;2.28;;
22937;SDS011;11634;42.734;23.298;2022-07-12T06:37:50;4.03;;;2.10;;
22937;SDS011;11634;42.734;23.298;2022-07-12T06:40:15;2.15;;;1.65;;
22937;SDS011;11634;42.734;23.298;2022-07-12T06:42:42;3.35;;;1.45;;
22937;SDS011;11634;42.734;23.298;2022-07-12T06:45:08;5.45;;;2.30;;
22937;SDS011;11634;42.734;23.298;2022-07-12T06:47:34;5.13;;;1.70;;
22937;SDS011;11634;42.734;23.298;2022-07-12T06:50:00;4.18;;;1.98;;
22937;SDS011;11634;42.734;23.298;2022-07-12T06:52:26;2.80;;;1.65;;
22937;SDS011;11634;42.734;23.298;2022-07-12T06:54:52;4.43;;;1.50;;
22937;SDS011;11634;42.734;23.298;2022-07-12T06:57:17;3.90;;;1.40;;
22937;SDS011;11634;42.734;23.298;2022-07-12T06:59:43;3.13;;;1.55;;
22937;SDS011;11634;42.734;23.298;2022-07-12T07:02:09;2.70;;;1.60;;
22937;SDS011;11634;42.734;23.298;2022-07-12T07:04:34;3.95;;;1.20;;
22937;SDS011;11634;42.734;23.298;2022-07-12T07:07:00;3.88;;;1.60;;
22937;SDS011;11634;42.734;23.298;2022-07-12T07:09:25;2.63;;;1.13;;
22937;SDS011;11634;42.734;23.298;2022-07-12T07:11:51;3.13;;;1.50;;
22937;SDS011;11634;42.734;23.298;2022-07-12T07:14:18;2.72;;;1.20;;
22937;SDS011;11634;42.734;23.298;2022-07-12T07:16:44;5.63;;;1.52;;
22937;SDS011;11634;42.734;23.298;2022-07-12T07:19:13;2.25;;;1.40;;
22937;SDS011;11634;42.734;23.298;2022-07-12T07:21:42;4.47;;;1.75;;
22937;SDS011;11634;42.734;23.298;2022-07-12T07:24:07;2.88;;;1.23;;
22937;SDS011;11634;42.734;23.298;2022-07-12T07:26:34;4.80;;;1.65;;
22937;SDS011;11634;42.734;23.298;2022-07-12T07:29:00;4.32;;;1.40;;
22937;SDS011;11634;42.734;23.298;2022-07-12T07:31:44;2.67;;;1.50;;
22937;SDS011;11634;42.734;23.298;2022-07-12T07:34:10;2.50;;;1.35;;
22937;SDS011;11634;42.734;23.298;2022-07-12T07:36:36;8.63;;;1.40;;
22937;SDS011;11634;42.734;23.298;2022-07-12T07:39:01;3.58;;;1.35;;
22937;SDS011;11634;42.734;23.298;2022-07-12T07:41:27;2.05;;;1.08;;
22937;SDS011;11634;42.734;23.298;2022-07-12T07:43:53;4.22;;;1.40;;
22937;SDS011;11634;42.734;23.298;2022-07-12T07:46:19;4.03;;;1.30;;
22937;SDS011;11634;42.734;23.298;2022-07-12T07:48:45;5.75;;;1.35;;
22937;SDS011;11634;42.734;23.298;2022-07-12T07:51:11;4.72;;;1.33;;
22937;SDS011;11634;42.734;23.298;2022-07-12T07:53:36;3.30;;;1.20;;
22937;SDS011;11634;42.734;23.298;2022-07-12T07:56:02;5.60;;;1.23;;
22937;SDS011;11634;42.734;23.298;2022-07-12T07:58:27;6.65;;;1.60;;
22937;SDS011;11634;42.734;23.298;2022-07-12T08:00:53;4.38;;;1.10;;
22937;SDS011;11634;42.734;23.298;2022-07-12T08:03:21;2.92;;;1.00;;
22937;SDS011;11634;42.734;23.298;2022-07-12T08:05:47;2.00;;;0.93;;
22937;SDS011;11634;42.734;23.298;2022-07-12T08:08:13;4.80;;;1.85;;
22937;SDS011;11634;42.734;23.298;2022-07-12T08:10:39;2.47;;;1.42;;
22937;SDS011;11634;42.734;23.298;2022-07-12T08:13:05;3.65;;;1.08;;
22937;SDS011;11634;42.734;23.298;2022-07-12T08:15:31;3.63;;;1.15;;
22937;SDS011;11634;42.734;23.298;2022-07-12T08:17:57;4.40;;;2.05;;
22937;SDS011;11634;42.734;23.298;2022-07-12T08:20:23;2.92;;;1.20;;
22937;SDS011;11634;42.734;23.298;2022-07-12T08:22:50;2.65;;;1.23;;
22937;SDS011;11634;42.734;23.298;2022-07-12T08:25:15;6.28;;;1.35;;
22937;SDS011;11634;42.734;23.298;2022-07-12T08:27:41;2.22;;;1.17;;
22937;SDS011;11634;42.734;23.298;2022-07-12T08:30:07;3.00;;;1.35;;
22937;SDS011;11634;42.734;23.298;2022-07-12T08:32:34;4.72;;;1.20;;
22937;SDS011;11634;42.734;23.298;2022-07-12T08:35:00;3.35;;;0.88;;
22937;SDS011;11634;42.734;23.298;2022-07-12T08:37:26;4.45;;;1.25;;
22937;SDS011;11634;42.734;23.298;2022-07-12T08:39:51;3.55;;;1.20;;
22937;SDS011;11634;42.734;23.298;2022-07-12T08:42:17;2.25;;;1.20;;
22937;SDS011;11634;42.734;23.298;2022-07-12T08:44:55;2.63;;;1.50;;
22937;SDS011;11634;42.734;23.298;2022-07-12T08:47:22;3.75;;;1.00;;
22937;SDS011;11634;42.734;23.298;2022-07-12T08:52:38;4.72;;;1.60;;
22937;SDS011;11634;42.734;23.298;2022-07-12T08:58:02;1.98;;;0.98;;
22937;SDS011;11634;42.734;23.298;2022-07-12T09:00:32;7.90;;;1.05;;
22937;SDS011;11634;42.734;23.298;2022-07-12T09:02:58;4.82;;;1.55;;
22937;SDS011;11634;42.734;23.298;2022-07-12T09:05:26;3.45;;;1.30;;
22937;SDS011;11634;42.734;23.298;2022-07-12T09:08:01;1.88;;;1.08;;
22937;SDS011;11634;42.734;23.298;2022-07-12T09:10:31;4.20;;;1.30;;
22937;SDS011;11634;42.734;23.298;2022-07-12T09:12:57;3.20;;;1.20;;
22937;SDS011;11634;42.734;23.298;2022-07-12T09:15:23;3.70;;;0.93;;
22937;SDS011;11634;42.734;23.298;2022-07-12T09:20:33;4.80;;;1.30;;
22937;SDS011;11634;42.734;23.298;2022-07-12T09:23:03;4.20;;;0.90;;
22937;SDS011;11634;42.734;23.298;2022-07-12T09:25:30;4.43;;;0.90;;
22937;SDS011;11634;42.734;23.298;2022-07-12T09:28:02;1.58;;;1.00;;
22937;SDS011;11634;42.734;23.298;2022-07-12T09:30:32;3.35;;;0.95;;
22937;SDS011;11634;42.734;23.298;2022-07-12T09:33:05;4.65;;;1.55;;
22937;SDS011;11634;42.734;23.298;2022-07-12T09:35:57;1.95;;;0.82;;
22937;SDS011;11634;42.734;23.298;2022-07-12T09:41:03;2.08;;;0.88;;
22937;SDS011;11634;42.734;23.298;2022-07-12T09:43:29;1.73;;;0.80;;
22937;SDS011;11634;42.734;23.298;2022-07-12T09:45:56;3.80;;;1.15;;
22937;SDS011;11634;42.734;23.298;2022-07-12T09:48:22;3.72;;;1.30;;
22937;SDS011;11634;42.734;23.298;2022-07-12T09:50:48;2.97;;;0.90;;
22937;SDS011;11634;42.734;23.298;2022-07-12T09:53:37;2.83;;;1.30;;
22937;SDS011;11634;42.734;23.298;2022-07-12T09:56:09;1.73;;;0.90;;
22937;SDS011;11634;42.734;23.298;2022-07-12T10:01:17;2.15;;;0.95;;
22937;SDS011;11634;42.734;23.298;2022-07-12T10:03:44;2.60;;;1.00;;
22937;SDS011;11634;42.734;23.298;2022-07-12T10:06:11;5.40;;;1.25;;
22937;SDS011;11634;42.734;23.298;2022-07-12T10:08:37;5.03;;;1.00;;
22937;SDS011;11634;42.734;23.298;2022-07-12T10:11:03;2.92;;;0.77;;
22937;SDS011;11634;42.734;23.298;2022-07-12T10:13:30;2.22;;;1.42;;
22937;SDS011;11634;42.734;23.298;2022-07-12T10:15:59;3.35;;;1.05;;
22937;SDS011;11634;42.734;23.298;2022-07-12T10:18:26;1.90;;;1.20;;
22937;SDS011;11634;42.734;23.298;2022-07-12T10:20:52;1.38;;;0.63;;
22937;SDS011;11634;42.734;23.298;2022-07-12T10:25:52;2.40;;;0.90;;
22937;SDS011;11634;42.734;23.298;2022-07-12T10:28:18;3.03;;;1.10;;
22937;SDS011;11634;42.734;23.298;2022-07-12T10:30:45;2.00;;;1.02;;
22937;SDS011;11634;42.734;23.298;2022-07-12T10:33:22;3.78;;;0.90;;
22937;SDS011;11634;42.734;23.298;2022-07-12T10:36:05;3.08;;;1.15;;
22937;SDS011;11634;42.734;23.298;2022-07-12T10:38:32;2.80;;;0.80;;
22937;SDS011;11634;42.734;23.298;2022-07-12T10:41:18;4.78;;;0.88;;
22937;SDS011;11634;42.734;23.298;2022-07-12T10:43:45;2.95;;;1.10;;
22937;SDS011;11634;42.734;23.298;2022-07-12T10:46:29;2.03;;;0.77;;
22937;SDS011;11634;42.734;23.298;2022-07-12T10:54:34;4.82;;;1.30;;
22937;SDS011;11634;42.734;23.298;2022-07-12T10:57:02;3.00;;;1.08;;
22937;SDS011;11634;42.734;23.298;2022-07-12T10:59:27;1.83;;;0.70;;
22937;SDS011;11634;42.734;23.298;2022-07-12T11:02:01;3.10;;;1.00;;
22937;SDS011;11634;42.734;23.298;2022-07-12T11:04:30;3.00;;;0.90;;
22937;SDS011;11634;42.734;23.298;2022-07-12T11:07:00;4.75;;;0.75;;
22937;SDS011;11634;42.734;23.298;2022-07-12T11:09:26;1.65;;;0.73;;
22937;SDS011;11634;42.734;23.298;2022-07-12T11:11:53;3.22;;;0.90;;
22937;SDS011;11634;42.734;23.298;2022-07-12T11:14:23;4.15;;;1.00;;
22937;SDS011;11634;42.734;23.298;2022-07-12T11:16:52;2.78;;;1.13;;
22937;SDS011;11634;42.734;23.298;2022-07-12T11:19:22;1.75;;;0.90;;
22937;SDS011;11634;42.734;23.298;2022-07-12T11:21:53;2.22;;;1.08;;
22937;SDS011;11634;42.734;23.298;2022-07-12T11:24:23;3.38;;;0.80;;
22937;SDS011;11634;42.734;23.298;2022-07-12T11:26:50;1.83;;;0.93;;
22937;SDS011;11634;42.734;23.298;2022-07-12T11:29:17;5.30;;;1.08;;
22937;SDS011;11634;42.734;23.298;2022-07-12T11:31:44;2.15;;;0.90;;
22937;SDS011;11634;42.734;23.298;2022-07-12T11:34:21;1.13;;;0.65;;
22937;SDS011;11634;42.734;23.298;2022-07-12T11:36:53;0.90;;;0.80;;
22937;SDS011;11634;42.734;23.298;2022-07-12T11:39:39;3.45;;;0.93;;
22937;SDS011;11634;42.734;23.298;2022-07-12T11:42:06;2.63;;;1.20;;
22937;SDS011;11634;42.734;23.298;2022-07-12T11:44:46;2.90;;;0.75;;
22937;SDS011;11634;42.734;23.298;2022-07-12T11:47:17;4.28;;;1.15;;
22937;SDS011;11634;42.734;23.298;2022-07-12T11:49:48;1.10;;;0.80;;
22937;SDS011;11634;42.734;23.298;2022-07-12T11:52:15;1.70;;;1.13;;
22937;SDS011;11634;42.734;23.298;2022-07-12T11:54:47;2.10;;;0.98;;
22937;SDS011;11634;42.734;23.298;2022-07-12T11:57:13;1.73;;;0.90;;
22937;SDS011;11634;42.734;23.298;2022-07-12T11:59:45;2.13;;;1.00;;
22937;SDS011;11634;42.734;23.298;2022-07-12T12:02:11;1.52;;;0.70;;
22937;SDS011;11634;42.734;23.298;2022-07-12T12:04:48;2.38;;;0.70;;
22937;SDS011;11634;42.734;23.298;2022-07-12T12:07:19;2.25;;;1.00;;
22937;SDS011;11634;42.734;23.298;2022-07-12T12:12:50;1.75;;;0.90;;
22937;SDS011;11634;42.734;23.298;2022-07-12T12:15:18;2.63;;;0.80;;
22937;SDS011;11634;42.734;23.298;2022-07-12T12:17:55;3.53;;;0.98;;
22937;SDS011;11634;42.734;23.298;2022-07-12T12:22:56;2.60;;;0.98;;
22937;SDS011;11634;42.734;23.298;2022-07-12T12:25:23;1.45;;;0.60;;
22937;SDS011;11634;42.734;23.298;2022-07-12T12:27:58;2.83;;;0.93;;
22937;SDS011;11634;42.734;23.298;2022-07-12T12:30:25;2.17;;;1.00;;
22937;SDS011;11634;42.734;23.298;2022-07-12T12:33:02;1.15;;;0.85;;
22937;SDS011;11634;42.734;23.298;2022-07-12T12:35:37;1.98;;;0.80;;
22937;SDS011;11634;42.734;23.298;2022-07-12T12:40:36;1.15;;;0.80;;
22937;SDS011;11634;42.734;23.298;2022-07-12T12:45:36;3.25;;;1.10;;
22937;SDS011;11634;42.734;23.298;2022-07-12T12:48:17;1.80;;;0.93;;
22937;SDS011;11634;42.734;23.298;2022-07-12T12:50:45;1.50;;;0.90;;
22937;SDS011;11634;42.734;23.298;2022-07-12T12:53:19;2.80;;;0.90;;
22937;SDS011;11634;42.734;23.298;2022-07-12T12:55:51;2.92;;;1.17;;
22937;SDS011;11634;42.734;23.298;2022-07-12T12:58:18;3.88;;;1.10;;
22937;SDS011;11634;42.734;23.298;2022-07-12T13:00:45;3.30;;;1.38;;
22937;SDS011;11634;42.734;23.298;2022-07-12T13:03:13;4.30;;;1.10;;
22937;SDS011;11634;42.734;23.298;2022-07-12T13:05:40;3.08;;;1.02;;
22937;SDS011;11634;42.734;23.298;2022-07-12T13:08:07;3.67;;;1.20;;
22937;SDS011;11634;42.734;23.298;2022-07-12T13:10:34;5.80;;;1.65;;
22937;SDS011;11634;42.734;23.298;2022-07-12T13:13:02;3.30;;;1.15;;
22937;SDS011;11634;42.734;23.298;2022-07-12T13:15:29;5.32;;;1.30;;
22937;SDS011;11634;42.734;23.298;2022-07-12T13:17:55;4.57;;;1.00;;
22937;SDS011;11634;42.734;23.298;2022-07-12T13:20:22;3.78;;;1.10;;
22937;SDS011;11634;42.734;23.298;2022-07-12T13:22:48;2.22;;;1.05;;
22937;SDS011;11634;42.734;23.298;2022-07-12T13:25:14;1.42;;;0.88;;
22937;SDS011;11634;42.734;23.298;2022-07-12T13:27:40;3.35;;;1.05;;
22937;SDS011;11634;42.734;23.298;2022-07-12T13:30:08;3.50;;;1.20;;
22937;SDS011;11634;42.734;23.298;2022-07-12T13:32:37;2.78;;;0.98;;
22937;SDS011;11634;42.734;23.298;2022-07-12T13:35:03;2.38;;;1.33;;
22937;SDS011;11634;42.734;23.298;2022-07-12T13:37:33;2.50;;;0.90;;
22937;SDS011;11634;42.734;23.298;2022-07-12T13:39:59;1.88;;;1.20;;
22937;SDS011;11634;42.734;23.298;2022-07-12T13:42:42;1.85;;;0.95;;
22937;SDS011;11634;42.734;23.298;2022-07-12T13:45:23;7.53;;;1.38;;
22937;SDS011;11634;42.734;23.298;2022-07-12T13:47:50;4.25;;;1.23;;
22937;SDS011;11634;42.734;23.298;2022-07-12T13:50:17;2.28;;;1.10;;
22937;SDS011;11634;42.734;23.298;2022-07-12T13:52:50;2.55;;;0.85;;
22937;SDS011;11634;42.734;23.298;2022-07-12T13:55:16;1.25;;;1.15;;
22937;SDS011;11634;42.734;23.298;2022-07-12T13:57:57;2.75;;;1.13;;
22937;SDS011;11634;42.734;23.298;2022-07-12T14:00:24;1.80;;;0.80;;
22937;SDS011;11634;42.734;23.298;2022-07-12T14:02:49;2.78;;;1.00;;
22937;SDS011;11634;42.734;23.298;2022-07-12T14:05:16;1.95;;;1.50;;
22937;SDS011;11634;42.734;23.298;2022-07-12T14:07:43;2.85;;;0.98;;
22937;SDS011;11634;42.734;23.298;2022-07-12T14:10:10;1.42;;;0.93;;
22937;SDS011;11634;42.734;23.298;2022-07-12T14:12:37;3.80;;;1.48;;
22937;SDS011;11634;42.734;23.298;2022-07-12T14:15:03;3.08;;;1.50;;
22937;SDS011;11634;42.734;23.298;2022-07-12T14:18:01;4.03;;;1.30;;
22937;SDS011;11634;42.734;23.298;2022-07-12T14:20:29;1.25;;;0.90;;
22937;SDS011;11634;42.734;23.298;2022-07-12T14:23:02;7.82;;;4.15;;
22937;SDS011;11634;42.734;23.298;2022-07-12T14:25:37;1.63;;;0.90;;
22937;SDS011;11634;42.734;23.298;2022-07-12T14:28:03;5.70;;;1.35;;
22937;SDS011;11634;42.734;23.298;2022-07-12T14:30:28;2.25;;;0.98;;
22937;SDS011;11634;42.734;23.298;2022-07-12T14:32:54;8.25;;;1.23;;
22937;SDS011;11634;42.734;23.298;2022-07-12T14:35:22;1.33;;;1.00;;
22937;SDS011;11634;42.734;23.298;2022-07-12T14:37:48;1.70;;;0.80;;
22937;SDS011;11634;42.734;23.298;2022-07-12T14:40:16;1.52;;;0.95;;
22937;SDS011;11634;42.734;23.298;2022-07-12T14:42:41;3.42;;;0.82;;
22937;SDS011;11634;42.734;23.298;2022-07-12T14:45:09;3.53;;;1.10;;
22937;SDS011;11634;42.734;23.298;2022-07-12T14:47:35;3.83;;;1.20;;
22937;SDS011;11634;42.734;23.298;2022-07-12T14:50:04;3.00;;;1.00;;
22937;SDS011;11634;42.734;23.298;2022-07-12T14:52:33;4.07;;;1.00;;
22937;SDS011;11634;42.734;23.298;2022-07-12T14:54:59;3.03;;;0.90;;
22937;SDS011;11634;42.734;23.298;2022-07-12T14:57:28;2.83;;;1.08;;
22937;SDS011;11634;42.734;23.298;2022-07-12T14:59:56;3.58;;;1.10;;
22937;SDS011;11634;42.734;23.298;2022-07-12T15:02:21;1.90;;;0.90;;
22937;SDS011;11634;42.734;23.298;2022-07-12T15:04:47;1.48;;;0.88;;
22937;SDS011;11634;42.734;23.298;2022-07-12T15:07:13;3.08;;;1.10;;
22937;SDS011;11634;42.734;23.298;2022-07-12T15:09:39;2.55;;;1.10;;